Terminal Aerodrome Forecast
Issued by NWS

Home | Current Version | Previous Version | Text Only | Print | Product List | Glossary On
Versions: 1 2 3 4 5 6 7 8 9 10 11 12 13 14 15 16 17 18 19 20 21
000
FTUS45 KTFX 161724
TAFBZN
TAF
KBZN 161724Z 1618/1724 VRB04KT 2SM -SN SCT010 OVC025
      TEMPO 1618/1622 3/4SM -SN BR OVC010
     FM170000 VRB04KT P6SM VCSH SCT020 BKN050
      TEMPO 1700/1702 BKN020
     FM170500 VRB03KT P6SM VCFG FEW040 SCT250
      TEMPO 1707/1711 1SM BR SCT003 SCT250=

USA.gov is the U.S. government's official web portal to all federal, state and local government web resources and services.